Latest Weather Observations for Beerburrum

IDQ60801

Issued at 6:02 pm EST Friday 21 September 2018 (issued every 10 minutes, with the page automatically refreshed every 10 minutes)

About weather observations | Map of weather stations | Latest weather observations for QLD | Other Formats
Station Details ID: 040284 Name: BEERBURRUM FOREST STATION Lat: -26.96 Lon: 152.96 Height: 48.0 m
Data from the previous 72 hours. | See also: Recent months at Beerburrum
Date/Time
EST
Temp
°C
App
Temp
°C
Dew
Point
°C
Rel
Hum
%
Delta-T
°C
Wind Press
QNH
hPa
Press
MSL
hPa
Rain since
9am
mm
Dir  Spd
km/h
Gust
km/h
Spd
kts
Gust
kts
21/06:00pm 17.6 16.8 9.8 60 4.1 S 4 11 2 6 - - 0.0
21/05:30pm 18.7 17.4 9.8 56 4.7 SSE 7 13 4 7 - - 0.0
21/05:00pm 19.7 18.1 8.7 49 5.8 SSE 7 13 4 7 - - 0.0
21/04:30pm 20.7 18.8 7.7 43 6.7 SSE 7 17 4 9 - - 0.0
21/04:00pm 21.7 19.7 7.2 39 7.5 SE 7 17 4 9 - - 0.0
21/03:30pm 22.1 20.0 8.2 41 7.3 SE 9 19 5 10 - - 0.0
21/03:00pm 22.1 19.7 7.1 38 7.7 SSE 9 20 5 11 - - 0.0
21/02:30pm 22.4 19.8 7.8 39 7.6 ESE 11 22 6 12 - - 0.0
21/02:00pm 22.1 18.8 6.3 36 8.0 SE 13 24 7 13 - - 0.0
21/01:30pm 22.1 17.1 4.6 32 8.6 S 20 30 11 16 - - 0.0
21/01:00pm 23.1 20.1 6.0 33 8.7 SE 11 22 6 12 - - 0.0
21/12:30pm 23.2 20.5 7.3 36 8.3 SE 11 26 6 14 - - 0.0
21/12:00pm 22.7 19.3 7.7 38 7.9 SSE 15 26 8 14 - - 0.0
21/11:30am 21.5 17.6 5.4 35 8.0 S 15 35 8 19 - - 0.0
21/11:00am 21.5 18.2 6.2 37 7.7 SSE 13 24 7 13 - - 0.0
21/10:30am 22.0 19.0 7.8 40 7.4 SSE 13 28 7 15 - - 0.0
21/10:00am 20.4 17.5 8.1 45 6.4 SSE 13 22 7 12 - - 0.0
21/09:30am 20.2 17.8 8.8 48 6.0 S 11 24 6 13 - - 0.0
21/09:00am 19.8 17.8 8.5 48 5.9 S 9 24 5 13 - - 0.0
21/08:30am 18.1 16.0 8.4 53 5.0 SSE 9 17 5 9 - - 0.0
21/08:00am 17.1 15.2 9.0 59 4.2 SSW 9 15 5 8 - - 0.0
21/07:30am 15.5 14.5 10.3 71 2.7 SW 6 7 3 4 - - 0.0
21/07:00am 12.6 13.0 11.2 91 0.7 CALM 0 6 0 3 - - 0.0
21/06:30am 9.8 9.4 8.4 91 0.7 CALM 0 0 0 0 - - 0.0
21/06:00am 9.4 8.9 8.0 91 0.7 CALM 0 0 0 0 - - 0.0
21/05:30am 9.5 9.0 7.9 90 0.8 CALM 0 0 0 0 - - 0.0
21/05:00am 9.9 9.5 8.2 89 0.8 CALM 0 0 0 0 - - 0.0
21/04:30am 10.4 10.1 8.7 89 0.8 CALM 0 0 0 0 - - 0.0
21/04:00am 10.8 10.6 8.9 88 0.9 CALM 0 0 0 0 - - 0.0
21/03:30am 11.3 11.2 9.4 88 1.0 CALM 0 0 0 0 - - 0.0
21/03:00am 11.9 11.4 9.5 85 1.2 SSW 2 6 1 3 - - 0.0
21/02:30am 12.6 11.8 9.8 83 1.4 SW 4 6 2 3 - - 0.0
21/02:00am 12.8 11.6 9.4 80 1.7 SSW 6 9 3 5 - - 0.0
21/01:30am 12.3 10.4 6.8 69 2.6 SW 6 15 3 8 - - 0.0
21/01:00am 11.5 10.1 3.5 58 3.5 CALM 0 0 0 0 - - 0.0
21/12:30am 11.0 9.0 2.3 55 3.7 SW 2 6 1 3 - - 0.0
21/12:00am 11.5 8.7 2.0 52 4.1 SSE 6 11 3 6 - - 0.0
 
Date/Time
EST
Temp
°C
App
Temp
°C
Dew
Point
°C
Rel
Hum
%
Delta-T
°C
Wind Press
QNH
hPa
Press
MSL
hPa
Rain since
9am
mm
Dir  Spd
km/h
Gust
km/h
Spd
kts
Gust
kts
20/11:30pm 11.5 10.5 5.8 68 2.7 CALM 0 0 0 0 - - 0.0
20/11:00pm 12.0 11.7 8.5 79 1.7 CALM 0 7 0 4 - - 0.0
20/10:30pm 12.4 12.5 10.0 85 1.2 CALM 0 0 0 0 - - 0.0
20/10:00pm 13.7 14.2 11.6 87 1.1 CALM 0 0 0 0 - - 0.0
20/09:30pm 14.9 15.9 13.1 89 1.0 CALM 0 0 0 0 - - 0.0
20/09:00pm 15.6 16.8 13.8 89 1.0 CALM 0 0 0 0 - - 0.0
20/08:30pm 16.1 17.3 13.9 87 1.2 CALM 0 0 0 0 - - 0.0
20/08:00pm 16.9 18.3 14.4 85 1.4 CALM 0 0 0 0 - - 0.0
20/07:30pm 17.7 19.3 14.8 83 1.7 CALM 0 0 0 0 - - 0.0
20/07:00pm 18.6 20.3 15.3 81 1.9 CALM 0 0 0 0 - - 0.0
20/06:30pm 18.7 20.5 15.4 81 1.9 CALM 0 0 0 0 - - 0.0
20/06:00pm 19.6 20.3 15.5 77 2.4 SSW 6 9 3 5 - - 0.0
20/05:30pm 20.7 21.2 15.5 72 3.1 S 7 13 4 7 - - 0.0
20/05:00pm 21.7 22.1 15.3 67 3.8 S 7 13 4 7 - - 0.0
20/04:30pm 22.6 23.1 15.0 62 4.5 ESE 6 13 3 7 - - 0.0
20/04:00pm 23.0 23.3 14.6 59 5.0 ESE 6 9 3 5 - - 0.0
20/03:30pm 24.5 24.5 14.3 53 6.0 ESE 7 13 4 7 - - 0.0
20/03:00pm 24.8 24.6 13.0 47 6.9 S 6 11 3 6 - - 0.0
20/02:30pm 25.4 25.0 12.9 45 7.3 SSE 7 17 4 9 - - 0.0
20/02:00pm 26.4 26.1 13.2 44 7.7 SSE 7 13 4 7 - - 0.0
20/01:30pm 26.7 25.6 10.8 37 9.0 E 7 13 4 7 - - 0.0
20/01:00pm 26.8 25.1 11.3 38 8.8 ESE 11 19 6 10 - - 0.0
20/12:30pm 28.0 26.5 10.7 34 9.8 ESE 9 15 5 8 - - 0.0
20/12:00pm 29.9 27.4 4.5 20 13.1 W 7 17 4 9 - - 0.0
20/11:30am 29.5 27.4 5.6 22 12.5 WSW 6 13 3 7 - - 0.0
20/11:00am 28.5 25.8 5.4 23 12.0 WNW 9 15 5 8 - - 0.0
20/10:30am 27.8 25.7 6.6 26 11.2 W 7 15 4 8 - - 0.0
20/10:00am 26.9 24.5 6.9 28 10.6 W 9 15 5 8 - - 0.0
20/09:30am 26.4 24.7 9.7 35 9.2 W 9 13 5 7 - - 0.0
20/09:00am 24.6 22.7 10.5 41 7.8 WSW 11 20 6 11 - - 0.0
20/08:30am 23.5 22.4 11.9 48 6.6 WNW 9 19 5 10 - - 0.0
20/08:00am 22.1 20.6 10.6 48 6.3 NNW 9 15 5 8 - - 0.0
20/07:30am 18.9 18.4 12.2 65 3.7 N 6 11 3 6 - - 0.0
20/07:00am 15.3 16.1 12.6 84 1.5 CALM 0 0 0 0 - - 0.0
20/06:30am 12.9 13.3 11.3 90 0.8 CALM 0 0 0 0 - - 0.0
20/06:00am 12.3 12.1 10.5 89 0.9 ENE 2 6 1 3 - - 0.0
20/05:30am 12.3 11.7 10.4 88 1.0 ESE 4 9 2 5 - - 0.0
20/05:00am 12.2 12.2 9.8 85 1.2 CALM 0 0 0 0 - - 0.0
20/04:30am 12.9 13.0 10.1 83 1.4 CALM 0 0 0 0 - - 0.0
20/04:00am 13.7 13.8 10.3 80 1.8 CALM 0 0 0 0 - - 0.0
20/03:30am 15.0 14.5 10.8 76 2.2 S 4 11 2 6 - - 0.0
20/03:00am 14.9 14.7 10.5 75 2.3 WSW 2 9 1 5 - - 0.0
20/02:30am 14.1 14.1 9.9 76 2.2 CALM 0 0 0 0 - - 0.0
20/02:00am 14.3 14.3 9.7 74 2.4 CALM 0 0 0 0 - - 0.0
20/01:30am 15.1 15.3 10.5 74 2.4 CALM 0 0 0 0 - - 0.0
20/01:00am 15.1 14.4 9.9 71 2.7 N 4 7 2 4 - - 0.0
20/12:30am 14.8 14.9 10.2 74 2.4 CALM 0 0 0 0 - - 0.0
20/12:00am 15.5 15.0 10.7 73 2.5 ENE 4 7 2 4 - - 0.0
 
Date/Time
EST
Temp
°C
App
Temp
°C
Dew
Point
°C
Rel
Hum
%
Delta-T
°C
Wind Press
QNH
hPa
Press
MSL
hPa
Rain since
9am
mm
Dir  Spd
km/h
Gust
km/h
Spd
kts
Gust
kts
19/11:30pm 16.0 15.4 11.8 76 2.3 NNE 6 9 3 5 - - 0.0
19/11:00pm 15.9 16.4 11.7 76 2.3 CALM 0 0 0 0 - - 0.0
19/10:30pm 16.2 17.0 12.4 78 2.1 CALM 0 7 0 4 - - 0.0
19/10:00pm 16.9 17.4 12.8 77 2.3 N 2 6 1 3 - - 0.0
19/09:30pm 17.6 17.4 12.9 74 2.6 NNE 6 11 3 6 - - 0.0
19/09:00pm 18.2 18.0 13.5 74 2.7 N 7 13 4 7 - - 0.0
19/08:30pm 18.3 17.7 13.6 74 2.7 NNE 9 17 5 9 - - 0.0
19/08:00pm 18.2 18.0 13.5 74 2.7 NE 7 15 4 8 - - 0.0
19/07:30pm 18.2 18.0 13.5 74 2.7 NNE 7 13 4 7 - - 0.0
19/07:00pm 18.9 18.7 13.7 72 3.0 NNE 7 15 4 8 - - 0.0
19/06:30pm 19.1 18.9 13.5 70 3.2 NNE 7 13 4 7 - - 0.0
19/06:00pm 19.6 19.5 13.3 67 3.6 NNE 6 11 3 6 - - 0.0
19/05:30pm 20.6 19.9 13.1 62 4.3 N 9 17 5 9 - - 0.0
19/05:00pm 21.9 20.7 12.7 56 5.2 N 11 19 6 10 - - 0.0
19/04:30pm 22.8 21.2 12.7 53 5.8 N 13 22 7 12 - - 0.0
19/04:00pm 23.6 21.9 12.3 49 6.4 N 13 24 7 13 - - 0.0
19/03:30pm 24.5 23.4 11.8 45 7.2 N 9 19 5 10 - - 0.0
19/03:00pm 24.5 22.8 11.1 43 7.5 N 11 24 6 13 - - 0.0
19/02:30pm 25.3 23.7 12.9 46 7.2 N 13 26 7 14 - - 0.0
19/02:00pm 25.3 23.4 11.8 43 7.7 N 13 24 7 13 - - 0.0
19/01:30pm 25.5 23.3 10.9 40 8.2 N 13 28 7 15 - - 0.0
19/01:00pm 26.2 24.6 11.5 40 8.4 N 11 19 6 10 - - 0.0
19/12:30pm 25.3 23.8 10.4 39 8.3 N 9 15 5 8 - - 0.0
19/12:00pm 25.2 23.6 11.7 43 7.7 NNW 11 20 6 11 - - 0.0
19/11:30am 24.8 22.5 10.3 40 8.0 N 13 28 7 15 - - 0.0
19/11:00am 23.8 21.5 10.5 43 7.4 N 13 22 7 12 - - 0.0
19/10:30am 24.6 23.4 11.5 44 7.4 N 9 20 5 11 - - 0.0
19/10:00am 23.0 21.1 10.4 45 6.9 NNE 11 22 6 12 - - 0.0
19/09:30am 22.0 20.1 10.5 48 6.3 N 11 26 6 14 - - 0.0
19/09:00am 21.4 19.5 10.6 50 5.9 N 11 20 6 11 - - 0.0
19/08:30am 20.5 19.6 11.2 55 5.1 N 7 13 4 7 - - 0.0
19/08:00am 19.7 19.6 12.2 62 4.2 NNE 4 11 2 6 - - 0.0
19/07:30am 17.4 17.6 12.9 75 2.5 N 4 7 2 4 - - 0.0
19/07:00am 12.6 13.2 11.8 95 0.4 CALM 0 0 0 0 - - 0.0
19/06:30am 9.4 9.0 8.3 93 0.5 CALM 0 4 0 2 - - 0.0
19/06:00am 8.8 8.3 7.7 93 0.5 CALM 0 0 0 0 - - 0.0
19/05:30am 8.8 8.3 7.7 93 0.5 CALM 0 0 0 0 - - 0.0
19/05:00am 8.8 8.2 7.6 92 0.6 CALM 0 0 0 0 - - 0.0
19/04:30am 8.8 8.2 7.6 92 0.6 CALM 0 0 0 0 - - 0.0
19/04:00am 9.1 8.6 7.9 92 0.6 CALM 0 0 0 0 - - 0.0
19/03:30am 9.0 8.4 7.6 91 0.7 CALM 0 0 0 0 - - 0.0
19/03:00am 9.3 8.9 8.1 92 0.6 CALM 0 0 0 0 - - 0.0
19/02:30am 9.2 8.7 7.8 91 0.7 CALM 0 0 0 0 - - 0.0
19/02:00am 9.4 8.9 8.0 91 0.7 CALM 0 0 0 0 - - 0.0
19/01:30am 9.5 9.1 8.1 91 0.7 CALM 0 0 0 0 - - 0.0
19/01:00am 9.7 9.3 8.1 90 0.8 CALM 0 0 0 0 - - 0.0
19/12:30am 9.8 9.4 8.4 91 0.7 CALM 0 0 0 0 - - 0.0
19/12:00am 9.8 9.4 8.2 90 0.8 CALM 0 0 0 0 - - 0.0
 
Date/Time
EST
Temp
°C
App
Temp
°C
Dew
Point
°C
Rel
Hum
%
Delta-T
°C
Wind Press
QNH
hPa
Press
MSL
hPa
Rain since
9am
mm
Dir  Spd
km/h
Gust
km/h
Spd
kts
Gust
kts
18/11:30pm 10.1 9.8 8.5 90 0.8 CALM 0 0 0 0 - - 0.0
18/11:00pm 10.3 10.0 8.6 89 0.8 CALM 0 0 0 0 - - 0.0
18/10:30pm 10.6 10.3 8.7 88 0.9 CALM 0 0 0 0 - - 0.0
18/10:00pm 10.9 10.6 8.8 87 1.0 CALM 0 0 0 0 - - 0.0
18/09:30pm 11.3 11.1 8.9 85 1.2 CALM 0 0 0 0 - - 0.0
18/09:00pm 11.9 11.8 9.3 84 1.3 CALM 0 0 0 0 - - 0.0
18/08:30pm 12.5 12.4 9.3 81 1.6 CALM 0 0 0 0 - - 0.0
18/08:00pm 13.1 13.0 9.5 79 1.8 CALM 0 0 0 0 - - 0.0
18/07:30pm 13.8 13.7 9.5 75 2.2 CALM 0 0 0 0 - - 0.0
18/07:00pm 14.8 14.9 10.0 73 2.5 CALM 0 0 0 0 - - 0.0
18/06:30pm 15.7 15.5 9.1 65 3.4 CALM 0 0 0 0 - - 0.0

Other Formats:

Comma delimited format used in spreadsheet applications
http://www.bom.gov.au/fwo/IDQ60801/IDQ60801.95566.axf

JavaScript Object Notation format (JSON) in row-major order
http://www.bom.gov.au/fwo/IDQ60801/IDQ60801.95566.json